createdAt,value
2023-02-25T00:02:42.027Z,78.35
2023-02-25T00:07:47.106Z,78.15
2023-02-25T00:12:51.652Z,79.77
2023-02-25T00:17:57.548Z,73.22
2023-02-25T00:28:06.755Z,75.43
2023-02-25T00:33:12.689Z,74.32
2023-02-25T00:38:17.550Z,76.57
2023-02-25T00:43:24.205Z,74.28
2023-02-25T00:48:30.194Z,71.00
2023-02-25T00:53:35.166Z,66.03
2023-02-25T00:58:40.070Z,69.65
2023-02-25T01:03:45.994Z,65.60
2023-02-25T01:08:52.797Z,72.57
2023-02-25T01:13:58.455Z,69.43
2023-02-25T01:19:07.735Z,74.18
2023-02-25T01:24:14.084Z,67.15
2023-02-25T01:29:20.363Z,69.45
2023-02-25T01:34:28.905Z,65.20
2023-02-25T01:39:34.318Z,67.50
2023-02-25T01:44:57.524Z,65.30
2023-02-25T01:50:03.790Z,62.38
2023-02-25T01:55:10.880Z,61.53
2023-02-25T02:00:17.145Z,67.65
2023-02-25T02:05:25.389Z,58.15
2023-02-25T02:10:30.158Z,63.15
2023-02-25T02:15:41.729Z,62.50
2023-02-25T02:21:00.981Z,62.42
2023-02-25T02:26:39.322Z,55.20
2023-02-25T02:31:58.029Z,55.45
2023-02-25T02:37:09.737Z,58.50
2023-02-25T02:42:21.397Z,62.72
2023-02-25T02:47:34.694Z,59.75
2023-02-25T02:52:44.224Z,55.08
2023-02-25T02:57:49.711Z,56.78
2023-02-25T03:02:59.911Z,61.65
2023-02-25T03:08:09.294Z,62.33
2023-02-25T03:13:14.065Z,62.17
2023-02-25T03:18:25.669Z,61.85
2023-02-25T03:23:34.290Z,61.20
2023-02-25T03:28:40.070Z,65.72
2023-02-25T03:33:50.107Z,57.33
2023-02-25T03:38:59.379Z,56.35
2023-02-25T03:44:08.927Z,63.15
2023-02-25T03:49:22.091Z,65.45
2023-02-25T03:54:27.606Z,67.70
2023-02-25T03:59:32.115Z,62.88
2023-02-25T04:04:38.405Z,44.72
2023-02-25T04:09:43.149Z,17.13
2023-02-25T04:14:47.475Z,8.70
2023-02-25T04:19:53.440Z,5.07
2023-02-25T04:24:58.928Z,5.60
2023-02-25T04:30:03.923Z,7.97
2023-02-25T04:35:11.837Z,11.25
2023-02-25T04:40:19.876Z,7.93
2023-02-25T04:45:27.145Z,9.40
2023-02-25T04:50:33.461Z,9.23
2023-02-25T04:55:38.142Z,11.02
2023-02-25T05:00:47.678Z,9.10
2023-02-25T05:05:53.942Z,10.13
2023-02-25T05:10:58.488Z,6.78
2023-02-25T05:16:07.874Z,6.35
2023-02-25T05:21:16.833Z,6.13
2023-02-25T05:26:24.425Z,6.78
2023-02-25T05:31:33.877Z,7.28
2023-02-25T05:36:40.148Z,11.73
2023-02-25T05:41:44.742Z,9.90
2023-02-25T05:46:49.455Z,11.18
2023-02-25T05:51:55.545Z,19.00
2023-02-25T05:57:00.266Z,15.25
2023-02-25T06:02:05.476Z,11.18
2023-02-25T06:07:11.492Z,11.57
2023-02-25T06:17:20.083Z,12.93
2023-02-25T06:22:26.014Z,8.00
2023-02-25T06:32:36.471Z,8.25
2023-02-25T06:37:42.388Z,7.55
2023-02-25T06:47:51.039Z,6.85
2023-02-25T06:52:59.507Z,5.43
2023-02-25T06:58:04.103Z,5.70
2023-02-25T07:03:08.505Z,6.53
2023-02-25T07:08:14.608Z,8.52
2023-02-25T07:13:19.824Z,4.45
2023-02-25T07:18:24.393Z,6.70
2023-02-25T07:23:30.436Z,4.43
2023-02-25T07:28:35.164Z,6.85
2023-02-25T07:33:39.483Z,6.47
2023-02-25T07:38:46.889Z,10.93
2023-02-25T07:43:51.620Z,13.77
2023-02-25T07:48:56.187Z,15.90
2023-02-25T07:54:02.253Z,15.80
2023-02-25T07:59:06.740Z,15.45
2023-02-25T08:04:13.272Z,12.95
2023-02-25T08:09:22.280Z,13.80
2023-02-25T08:14:26.780Z,12.07
2023-02-25T08:19:31.270Z,14.13
2023-02-25T08:24:38.007Z,9.45
2023-02-25T08:29:42.521Z,9.95
2023-02-25T08:34:48.819Z,9.70
2023-02-25T08:39:57.704Z,13.02
2023-02-25T08:45:05.387Z,13.18
2023-02-25T08:50:11.419Z,14.33
2023-02-25T09:00:23.647Z,15.93
2023-02-25T09:05:28.316Z,14.82
2023-02-25T09:10:48.265Z,13.60
2023-02-25T09:15:58.612Z,12.55
2023-02-25T09:21:03.546Z,13.10
2023-02-25T09:26:09.573Z,14.52
2023-02-25T09:31:14.185Z,14.93
2023-02-25T09:36:21.112Z,20.25
2023-02-25T09:41:33.663Z,13.88
2023-02-25T09:46:44.009Z,19.20
2023-02-25T09:51:56.755Z,15.35
2023-02-25T09:57:06.036Z,15.18
2023-02-25T10:02:25.958Z,32.22
2023-02-25T10:07:35.903Z,22.05
2023-02-25T10:12:55.488Z,22.77
2023-02-25T10:18:15.909Z,24.70
2023-02-25T10:23:35.633Z,24.48
2023-02-25T10:28:43.705Z,19.75
2023-02-25T10:33:49.825Z,23.02
2023-02-25T10:38:55.232Z,26.67
2023-02-25T10:44:01.100Z,30.00
2023-02-25T10:49:17.849Z,12.77
2023-02-25T10:54:25.290Z,9.18
2023-02-25T10:59:37.218Z,5.82
2023-02-25T11:04:41.681Z,5.85
2023-02-25T11:09:46.441Z,7.70
2023-02-25T11:14:52.199Z,4.80
2023-02-25T11:20:04.101Z,6.28
2023-02-25T11:25:18.513Z,8.38
2023-02-25T11:30:31.815Z,7.38
2023-02-25T11:35:38.689Z,8.23
2023-02-25T11:40:45.892Z,10.85
2023-02-25T11:45:58.042Z,11.43
2023-02-25T11:51:13.356Z,11.45
2023-02-25T11:56:26.273Z,11.82
2023-02-25T12:01:42.489Z,9.27
2023-02-25T12:07:09.849Z,11.77
2023-02-25T12:12:54.450Z,6.57
2023-02-25T12:18:31.648Z,10.55
2023-02-25T12:24:09.600Z,12.20
2023-02-25T12:29:38.559Z,6.30
2023-02-25T12:35:06.988Z,6.10
2023-02-25T12:40:39.750Z,5.82
2023-02-25T12:46:22.720Z,6.05
2023-02-25T12:52:03.773Z,8.75
2023-02-25T12:57:23.111Z,7.80
2023-02-25T13:03:05.851Z,7.78
2023-02-25T13:08:46.172Z,7.57
2023-02-25T13:14:15.684Z,6.20
2023-02-25T13:19:58.282Z,5.95
2023-02-25T13:25:15.838Z,4.75
2023-02-25T13:30:37.229Z,8.35
2023-02-25T13:35:54.939Z,6.68
2023-02-25T13:41:16.280Z,7.50
2023-02-25T13:46:58.746Z,2.70
2023-02-25T13:52:31.912Z,5.93
2023-02-25T13:57:48.998Z,5.05
2023-02-25T14:03:14.911Z,6.43
2023-02-25T14:08:54.440Z,7.38
2023-02-25T14:14:38.724Z,7.85
2023-02-25T14:19:57.946Z,7.13
2023-02-25T14:25:16.092Z,6.95
2023-02-25T14:30:30.326Z,8.63
2023-02-25T14:35:47.803Z,7.20
2023-02-25T14:41:03.222Z,10.52
2023-02-25T14:46:23.629Z,7.93
2023-02-25T14:52:03.762Z,10.90
2023-02-25T14:57:28.822Z,14.15
2023-02-25T15:02:51.863Z,17.58
2023-02-25T15:08:18.920Z,19.70
2023-02-25T15:13:39.341Z,8.82
2023-02-25T15:19:17.478Z,7.45
2023-02-25T15:24:40.828Z,9.55
2023-02-25T15:29:59.124Z,14.30
2023-02-25T15:35:06.550Z,12.88
2023-02-25T15:40:45.104Z,8.38
2023-02-25T15:45:50.576Z,11.15
2023-02-25T15:50:55.829Z,10.77
2023-02-25T15:56:29.962Z,24.08
2023-02-25T16:01:44.444Z,20.90
2023-02-25T16:06:49.196Z,17.63
2023-02-25T16:11:58.144Z,20.52
2023-02-25T16:17:08.225Z,30.75
2023-02-25T16:22:17.604Z,25.77
2023-02-25T16:27:43.474Z,22.27
2023-02-25T16:32:55.870Z,19.92
2023-02-25T16:38:10.716Z,26.50
2023-02-25T16:43:21.678Z,21.38
2023-02-25T16:48:32.081Z,14.43
2023-02-25T16:53:36.843Z,16.40
2023-02-25T16:58:42.789Z,12.93
2023-02-25T17:03:47.646Z,16.52
2023-02-25T17:08:52.481Z,10.00
2023-02-25T17:14:03.407Z,99.72
2023-02-25T17:19:11.794Z,11.02
2023-02-25T17:24:22.619Z,18.20
2023-02-25T17:29:36.624Z,16.02
2023-02-25T17:34:43.597Z,11.75
2023-02-25T17:39:48.799Z,14.43
2023-02-25T17:44:55.045Z,15.07
2023-02-25T17:50:02.701Z,14.98
2023-02-25T17:55:21.279Z,18.98
2023-02-25T18:00:31.137Z,13.10
2023-02-25T18:05:49.747Z,11.80
2023-02-25T18:10:57.264Z,18.15
2023-02-25T18:16:46.057Z,10.55
2023-02-25T18:21:53.072Z,14.68
2023-02-25T18:27:24.700Z,13.70
2023-02-25T18:32:39.498Z,11.50
2023-02-25T18:42:53.583Z,21.27
2023-02-25T18:48:00.373Z,22.33
2023-02-25T18:53:06.316Z,28.17
2023-02-25T19:03:23.748Z,19.42
2023-02-25T19:08:30.074Z,23.70
2023-02-25T19:13:36.848Z,16.73
2023-02-25T19:18:42.951Z,42.30
2023-02-25T19:23:51.719Z,31.88
2023-02-25T19:28:56.430Z,47.88
2023-02-25T19:34:01.041Z,30.77
2023-02-25T19:39:07.530Z,28.77
2023-02-25T19:44:11.957Z,32.38
2023-02-25T19:49:16.508Z,20.00
2023-02-25T19:54:25.091Z,25.17
2023-02-25T19:59:31.839Z,21.35
2023-02-25T20:09:42.044Z,49.58
2023-02-25T20:14:46.641Z,21.23
2023-02-25T20:19:51.099Z,59.13
2023-02-25T20:24:57.017Z,18.85
2023-02-25T20:30:02.008Z,27.35
2023-02-25T20:35:07.610Z,28.75
2023-02-25T20:40:14.867Z,20.27
2023-02-25T20:45:21.392Z,12.88
2023-02-25T20:50:30.236Z,14.55
2023-02-25T20:55:36.417Z,12.02
2023-02-25T21:00:41.216Z,13.50
2023-02-25T21:05:45.671Z,18.17
2023-02-25T21:10:51.885Z,35.85
2023-02-25T21:16:00.401Z,41.63
2023-02-25T21:21:08.870Z,43.80
2023-02-25T21:26:16.138Z,23.38
2023-02-25T21:31:20.717Z,10.75
2023-02-25T21:36:25.471Z,12.15
2023-02-25T21:41:31.713Z,13.23
2023-02-25T21:46:36.554Z,14.07
2023-02-25T21:51:41.564Z,13.48
2023-02-25T21:56:47.620Z,11.70
2023-02-25T22:06:56.302Z,12.18
2023-02-25T22:12:02.153Z,15.85
2023-02-25T22:17:06.893Z,14.13
2023-02-25T22:22:13.563Z,19.58
2023-02-25T22:27:20.009Z,12.10
2023-02-25T22:32:24.953Z,13.05
2023-02-25T22:37:29.371Z,44.30
2023-02-25T22:42:35.324Z,32.40
2023-02-25T22:47:40.723Z,14.60
2023-02-25T22:52:45.273Z,28.52
2023-02-25T22:57:51.071Z,14.63
2023-02-25T23:08:00.675Z,17.83
2023-02-25T23:13:08.120Z,8.48
2023-02-25T23:18:12.639Z,10.52
2023-02-25T23:23:17.721Z,11.63
2023-02-25T23:28:23.481Z,10.87
2023-02-25T23:33:28.889Z,18.02
2023-02-25T23:38:34.170Z,31.58
2023-02-25T23:43:39.985Z,14.45
2023-02-25T23:53:49.262Z,15.40
2023-02-25T23:58:55.735Z,11.10
